Time;durP1;ratioP1;P1;durP2;ratioP2;P2;SDS_P1;SDS_P2;PMS_P1;PMS_P2;Temp;Humidity;BMP_temperature;BMP_pressure;BME280_temperature;BME280_humidity;BME280_pressure;Samples;Min_cycle;Max_cycle;Signal;HPM_P1;HPM_P2
2021/10/14 00:01:44;;;;;;;0.20;0.10;;;1.20;99.90;;;;;;21157644;28;20062;-49
2021/10/14 00:11:46;;;;;;;0.20;0.10;;;1.50;99.90;;;;;;21139250;28;20035;-55
2021/10/14 00:21:48;;;;;;;0.40;0.10;;;1.50;99.90;;;;;;21151865;28;20036;-51
2021/10/14 00:31:50;;;;;;;0.40;0.10;;;2.00;99.90;;;;;;21072171;28;20105;-51
2021/10/14 00:41:52;;;;;;;0.13;0.08;;;2.30;99.30;;;;;;21084255;28;20093;-51
2021/10/14 00:51:54;;;;;;;0.68;0.10;;;2.10;99.90;;;;;;21155024;28;20470;-56
2021/10/14 01:01:56;;;;;;;0.52;0.22;;;1.40;99.90;;;;;;21154359;28;20046;-53
2021/10/14 01:12:03;;;;;;;1.08;0.20;;;0.90;99.90;;;;;;21153572;28;20379;-50
2021/10/14 01:22:05;;;;;;;0.57;0.20;;;0.80;99.90;;;;;;21153473;28;20054;-51
2021/10/14 01:32:07;;;;;;;0.57;0.20;;;0.70;99.90;;;;;;21154193;28;20027;-50
2021/10/14 01:42:09;;;;;;;0.73;0.30;;;1.00;99.90;;;;;;21185714;28;20043;-50
2021/10/14 01:52:12;;;;;;;0.15;0.10;;;1.20;99.90;;;;;;21237514;28;20035;-50
2021/10/14 02:02:14;;;;;;;0.85;0.30;;;1.20;99.90;;;;;;21237270;28;20027;-53
2021/10/14 02:12:16;;;;;;;0.57;0.20;;;1.20;99.90;;;;;;21236324;28;20031;-53
2021/10/14 02:22:18;;;;;;;0.47;0.13;;;1.40;99.90;;;;;;21228410;28;20336;-53
2021/10/14 02:32:20;;;;;;;2.17;0.30;;;1.40;99.90;;;;;;21165716;28;20035;-52
2021/10/14 02:42:23;;;;;;;0.38;0.20;;;1.40;99.90;;;;;;21110942;28;20071;-54
2021/10/14 02:52:24;;;;;;;0.70;0.30;;;1.60;99.90;;;;;;21079806;28;20089;-50
2021/10/14 03:02:26;;;;;;;1.55;0.30;;;1.70;99.50;;;;;;21079010;28;20040;-50
2021/10/14 03:12:28;;;;;;;0.85;0.30;;;1.70;99.70;;;;;;21078200;28;20078;-51
2021/10/14 03:22:30;;;;;;;1.23;0.30;;;1.60;99.80;;;;;;21077110;28;20032;-52
2021/10/14 03:32:32;;;;;;;0.75;0.30;;;1.40;99.90;;;;;;21076484;28;20036;-54
2021/10/14 03:42:34;;;;;;;0.73;0.43;;;1.10;99.90;;;;;;21111210;28;20399;-50
2021/10/14 03:52:36;;;;;;;0.40;0.20;;;0.90;99.90;;;;;;21159080;28;20032;-55
2021/10/14 04:02:38;;;;;;;0.95;0.38;;;0.90;99.90;;;;;;21158454;28;20027;-51
2021/10/14 04:12:41;;;;;;;1.75;0.60;;;0.80;99.90;;;;;;21157383;28;20023;-54
2021/10/14 04:22:44;;;;;;;0.95;0.30;;;1.30;99.70;;;;;;21156643;28;20073;-50
2021/10/14 04:32:47;;;;;;;0.80;0.30;;;1.30;98.90;;;;;;21155885;28;20024;-51
2021/10/14 04:42:49;;;;;;;0.73;0.40;;;1.70;99.20;;;;;;21155140;28;20043;-49
2021/10/14 04:52:51;;;;;;;0.77;0.40;;;1.50;99.00;;;;;;21154320;28;20027;-50
2021/10/14 05:02:53;;;;;;;0.88;0.47;;;1.30;99.70;;;;;;21155765;28;20028;-55
2021/10/14 05:12:55;;;;;;;0.32;0.20;;;0.90;99.90;;;;;;21153886;28;20035;-52
2021/10/14 05:22:57;;;;;;;1.23;0.40;;;0.90;99.70;;;;;;21152954;28;20032;-52
2021/10/14 05:32:59;;;;;;;1.83;0.40;;;1.40;98.70;;;;;;21151947;28;20081;-55
2021/10/14 05:43:02;;;;;;;0.77;0.32;;;1.50;98.70;;;;;;21193741;28;20084;-56
2021/10/14 05:53:04;;;;;;;0.73;0.30;;;1.50;98.50;;;;;;21218664;28;20043;-53
2021/10/14 06:03:06;;;;;;;0.75;0.20;;;1.60;98.80;;;;;;21229185;27;20031;-53
2021/10/14 06:13:07;;;;;;;0.60;0.30;;;1.70;99.10;;;;;;21233494;27;20662;-51
2021/10/14 06:23:09;;;;;;;0.60;0.30;;;1.80;98.20;;;;;;21235049;27;20402;-54
2021/10/14 06:33:11;;;;;;;0.50;0.20;;;2.10;97.40;;;;;;21165554;28;20089;-53
2021/10/14 06:43:13;;;;;;;0.52;0.20;;;2.20;97.10;;;;;;21122113;28;20411;-52
2021/10/14 06:53:15;;;;;;;1.42;0.20;;;2.30;97.20;;;;;;21079489;28;20081;-56
2021/10/14 07:03:16;;;;;;;0.93;0.32;;;2.50;97.40;;;;;;21078402;28;20427;-51
2021/10/14 07:13:19;;;;;;;0.45;0.20;;;3.20;94.90;;;;;;21076790;28;20051;-52
2021/10/14 07:23:21;;;;;;;1.10;0.30;;;4.00;93.80;;;;;;21077064;28;20066;-51
2021/10/14 07:33:23;;;;;;;0.30;0.17;;;4.80;93.70;;;;;;21076284;28;20036;-51
2021/10/14 07:43:24;;;;;;;0.73;0.28;;;5.50;92.40;;;;;;21118909;28;20048;-53
2021/10/14 07:53:27;;;;;;;0.43;0.20;;;6.20;90.40;;;;;;21159035;28;20031;-51
2021/10/14 08:03:29;;;;;;;0.60;0.30;;;6.90;93.00;;;;;;21158002;28;20035;-55
2021/10/14 08:13:31;;;;;;;0.85;0.20;;;7.80;91.70;;;;;;21157577;28;20024;-54
2021/10/14 08:23:33;;;;;;;0.40;0.20;;;8.20;92.70;;;;;;21156342;28;20032;-51
2021/10/14 08:33:35;;;;;;;0.32;0.20;;;8.70;92.40;;;;;;21156084;28;20031;-51
2021/10/14 08:43:39;;;;;;;0.20;0.10;;;9.30;90.10;;;;;;21155775;28;20441;-53
2021/10/14 08:53:41;;;;;;;1.85;0.38;;;9.70;87.10;;;;;;21136639;28;20042;-55
2021/10/14 09:03:47;;;;;;;0.20;0.20;;;10.10;87.30;;;;;;21154413;28;20081;-51
2021/10/14 09:13:52;;;;;;;0.30;0.10;;;9.90;87.90;;;;;;21153705;28;20027;-50
2021/10/14 09:23:56;;;;;;;0.55;0.28;;;10.50;87.00;;;;;;21153289;28;20027;-51
2021/10/14 09:33:58;;;;;;;1.98;0.30;;;10.70;89.10;;;;;;21147556;28;20121;-52
2021/10/14 09:44:05;;;;;;;0.77;0.25;;;11.00;84.10;;;;;;21170155;27;20059;-52
2021/10/14 09:54:07;;;;;;;0.65;0.30;;;11.00;86.50;;;;;;21169261;28;20536;-52
2021/10/14 10:04:09;;;;;;;0.80;0.40;;;11.10;82.20;;;;;;21167821;28;20387;-50
2021/10/14 10:14:12;;;;;;;0.93;0.43;;;11.10;78.30;;;;;;21167388;28;20043;-54
2021/10/14 10:24:20;;;;;;;0.63;0.20;;;10.90;77.20;;;;;;21166080;28;20363;-51
2021/10/14 10:44:43;;;;;;;0.33;0.10;;;12.20;82.50;;;;;;21164604;28;20048;-50
2021/10/14 10:54:48;;;;;;;0.40;0.25;;;12.30;83.60;;;;;;21163040;28;20039;-50
2021/10/14 11:04:51;;;;;;;0.93;0.30;;;12.10;80.00;;;;;;21163038;28;20036;-56
2021/10/14 11:14:54;;;;;;;0.77;0.43;;;12.50;79.70;;;;;;21162293;28;20031;-50
2021/10/14 11:25:00;;;;;;;0.73;0.30;;;12.40;78.10;;;;;;21161800;28;20036;-50
2021/10/14 11:35:09;;;;;;;0.60;0.25;;;12.10;81.20;;;;;;21160755;28;20394;-55
2021/10/14 11:45:11;;;;;;;1.65;0.20;;;12.40;75.30;;;;;;21159335;28;20491;-50
2021/10/14 11:55:12;;;;;;;1.42;0.50;;;12.90;79.90;;;;;;21158469;28;20367;-54
2021/10/14 12:05:15;;;;;;;0.90;0.40;;;12.80;83.10;;;;;;21158191;28;20467;-56
2021/10/14 12:15:17;;;;;;;1.45;0.70;;;12.70;83.70;;;;;;21157411;28;20023;-52
2021/10/14 12:25:23;;;;;;;2.25;0.93;;;12.40;86.70;;;;;;21156390;28;20027;-53
2021/10/14 12:35:28;;;;;;;2.53;1.10;;;12.70;89.40;;;;;;21155951;28;20031;-54
2021/10/14 12:55:57;;;;;;;5.05;1.75;;;12.40;94.20;;;;;;21051083;28;20039;-52
2021/10/14 13:06:00;;;;;;;3.60;1.80;;;12.20;93.60;;;;;;21070027;28;20085;-51
2021/10/14 13:16:03;;;;;;;3.25;1.88;;;12.10;95.30;;;;;;21050880;28;20032;-54
2021/10/14 13:26:05;;;;;;;3.10;2.05;;;12.00;96.00;;;;;;21068617;28;20490;-52
2021/10/14 13:36:11;;;;;;;4.57;2.08;;;11.20;95.20;;;;;;21126718;28;20032;-56
2021/10/14 13:46:13;;;;;;;5.03;2.25;;;10.40;96.80;;;;;;21151726;28;20525;-55
2021/10/14 13:56:15;;;;;;;4.93;2.58;;;9.70;98.90;;;;;;21151627;28;20070;-59
2021/10/14 14:06:17;;;;;;;6.90;2.28;;;9.30;99.70;;;;;;21151728;28;20024;-56
2021/10/14 14:16:19;;;;;;;5.13;2.90;;;8.90;99.90;;;;;;21151237;28;20043;-56
2021/10/14 14:26:22;;;;;;;8.48;3.47;;;8.60;99.90;;;;;;21164460;28;20105;-53
2021/10/14 14:36:27;;;;;;;6.30;3.03;;;8.30;99.90;;;;;;21164763;28;20043;-56
2021/10/14 14:46:29;;;;;;;4.82;2.95;;;7.90;99.90;;;;;;21145957;28;20073;-55
2021/10/14 14:56:31;;;;;;;6.68;3.22;;;7.50;99.90;;;;;;21163956;28;20035;-57
2021/10/14 15:06:33;;;;;;;4.32;2.97;;;7.20;99.90;;;;;;21142828;28;20077;-57
2021/10/14 15:16:35;;;;;;;6.60;3.40;;;6.90;99.90;;;;;;21162258;28;20425;-57
2021/10/14 15:26:36;;;;;;;5.28;3.17;;;6.60;99.90;;;;;;21159976;28;20387;-55
2021/10/14 15:36:39;;;;;;;6.03;3.47;;;6.00;99.90;;;;;;21159191;28;20467;-56
2021/10/14 15:46:41;;;;;;;11.90;4.90;;;5.40;99.90;;;;;;21159932;28;20057;-56
2021/10/14 15:56:43;;;;;;;9.40;4.05;;;4.80;99.90;;;;;;21159469;28;20081;-56
2021/10/14 16:06:45;;;;;;;7.93;5.10;;;4.40;99.90;;;;;;21158524;28;20386;-51
2021/10/14 16:16:48;;;;;;;8.98;4.90;;;4.10;99.90;;;;;;21157302;28;20413;-55
2021/10/14 16:26:51;;;;;;;6.57;3.85;;;4.10;99.90;;;;;;21156729;28;20031;-51
2021/10/14 16:36:53;;;;;;;6.95;4.05;;;3.90;99.90;;;;;;21155495;28;20035;-53
2021/10/14 16:46:54;;;;;;;9.38;4.00;;;3.70;99.90;;;;;;21155658;27;20051;-52
2021/10/14 16:56:58;;;;;;;7.55;3.20;;;3.30;99.90;;;;;;21153251;27;20035;-53
2021/10/14 17:07:01;;;;;;;5.50;3.00;;;3.20;99.90;;;;;;21149694;28;20047;-52
2021/10/14 17:17:05;;;;;;;7.95;3.10;;;3.00;99.90;;;;;;21151910;28;20089;-56
2021/10/14 17:47:40;;;;;;;1.40;0.90;;;2.90;99.90;;;;;;21150005;28;20048;-56
2021/10/14 17:57:43;;;;;;;3.97;1.85;;;2.60;99.90;;;;;;21158948;28;20039;-52
2021/10/14 18:38:46;;;;;;;5.13;2.72;;;2.30;99.90;;;;;;21165193;28;20096;-54
2021/10/14 18:48:50;;;;;;;8.10;3.85;;;2.20;99.90;;;;;;21164511;28;20097;-52
2021/10/14 18:59:00;;;;;;;9.48;5.15;;;2.30;99.90;;;;;;21163056;28;20552;-55
2021/10/14 19:19:12;;;;;;;7.75;3.70;;;2.10;99.90;;;;;;21161432;28;20047;-54
2021/10/14 20:20:58;;;;;;;11.27;5.43;;;2.10;99.90;;;;;;21157172;28;20096;-55
2021/10/14 20:31:05;;;;;;;7.93;4.70;;;2.10;99.90;;;;;;21155352;28;20034;-51
2021/10/14 20:41:07;;;;;;;8.88;4.75;;;1.90;99.90;;;;;;21154805;28;20036;-53
2021/10/14 20:51:14;;;;;;;9.65;5.97;;;1.90;99.90;;;;;;21154303;28;20031;-55
2021/10/14 21:11:36;;;;;;;14.80;8.85;;;1.60;99.90;;;;;;21152928;28;20039;-52
2021/10/14 21:21:38;;;;;;;19.05;10.98;;;1.60;99.90;;;;;;21153045;28;20031;-55
2021/10/14 21:41:48;;;;;;;16.60;10.27;;;1.70;99.90;;;;;;21170127;28;20101;-54
2021/10/14 21:51:50;;;;;;;23.85;13.50;;;1.70;99.90;;;;;;21168919;28;20440;-53
2021/10/14 22:01:51;;;;;;;24.08;13.05;;;1.70;99.90;;;;;;21168312;28;20031;-51
2021/10/14 22:11:54;;;;;;;20.15;11.30;;;1.80;99.90;;;;;;21167785;28;20088;-51
2021/10/14 22:21:56;;;;;;;22.25;11.80;;;1.80;99.90;;;;;;21166384;28;20027;-54
2021/10/14 22:32:00;;;;;;;12.10;7.70;;;1.80;99.90;;;;;;21165930;28;20073;-53
2021/10/14 22:42:03;;;;;;;9.00;4.97;;;2.00;99.90;;;;;;21164477;28;20039;-52
2021/10/14 22:52:06;;;;;;;8.27;3.78;;;1.90;99.90;;;;;;21164315;28;20433;-50
2021/10/14 23:02:08;;;;;;;6.97;4.18;;;1.90;99.90;;;;;;21163269;28;20036;-54
2021/10/14 23:12:10;;;;;;;8.02;3.97;;;2.10;99.90;;;;;;21144284;28;20098;-53
2021/10/14 23:22:11;;;;;;;6.78;3.10;;;2.10;99.90;;;;;;21161666;28;20035;-54
2021/10/14 23:32:16;;;;;;;6.32;2.80;;;2.20;99.90;;;;;;21160002;28;20039;-53
2021/10/14 23:42:18;;;;;;;5.57;2.22;;;2.30;99.90;;;;;;21141098;28;20043;-53
2021/10/14 23:52:20;;;;;;;2.88;1.88;;;2.20;99.90;;;;;;21158998;28;20039;-51
